sensor_id;sensor_type;location;lat;lon;timestamp;temperature;humidity
16846;DHT22;8539;53.188;8.696;2023-08-17T00:01:59;16.50;99.90
16846;DHT22;8539;53.188;8.696;2023-08-17T00:04:26;16.50;99.90
16846;DHT22;8539;53.188;8.696;2023-08-17T00:06:52;16.50;99.90
16846;DHT22;8539;53.188;8.696;2023-08-17T00:09:18;16.50;99.90
16846;DHT22;8539;53.188;8.696;2023-08-17T00:11:45;16.50;99.90
16846;DHT22;8539;53.188;8.696;2023-08-17T00:17:15;16.50;99.90
16846;DHT22;8539;53.188;8.696;2023-08-17T00:19:45;16.50;99.90
16846;DHT22;8539;53.188;8.696;2023-08-17T00:22:11;16.50;99.90
16846;DHT22;8539;53.188;8.696;2023-08-17T00:27:09;16.50;99.90
16846;DHT22;8539;53.188;8.696;2023-08-17T00:29:36;16.50;99.90
16846;DHT22;8539;53.188;8.696;2023-08-17T00:32:09;16.50;99.90
16846;DHT22;8539;53.188;8.696;2023-08-17T00:34:45;16.50;99.90
16846;DHT22;8539;53.188;8.696;2023-08-17T00:37:23;16.50;99.90
16846;DHT22;8539;53.188;8.696;2023-08-17T00:42:25;16.50;99.90
16846;DHT22;8539;53.188;8.696;2023-08-17T00:47:22;16.50;99.90
16846;DHT22;8539;53.188;8.696;2023-08-17T00:49:49;16.50;99.90
16846;DHT22;8539;53.188;8.696;2023-08-17T00:52:15;16.50;99.90
16846;DHT22;8539;53.188;8.696;2023-08-17T00:54:42;16.40;99.90
16846;DHT22;8539;53.188;8.696;2023-08-17T00:59:38;16.40;99.90
16846;DHT22;8539;53.188;8.696;2023-08-17T01:02:04;16.40;99.90
16846;DHT22;8539;53.188;8.696;2023-08-17T01:04:31;16.40;99.90
16846;DHT22;8539;53.188;8.696;2023-08-17T01:06:58;16.40;99.90
16846;DHT22;8539;53.188;8.696;2023-08-17T01:09:25;16.40;99.90
16846;DHT22;8539;53.188;8.696;2023-08-17T01:12:38;16.40;99.90
16846;DHT22;8539;53.188;8.696;2023-08-17T01:15:22;16.40;99.90
16846;DHT22;8539;53.188;8.696;2023-08-17T01:18:21;16.40;99.90
16846;DHT22;8539;53.188;8.696;2023-08-17T01:20:50;16.40;99.90
16846;DHT22;8539;53.188;8.696;2023-08-17T01:23:21;16.40;99.90
16846;DHT22;8539;53.188;8.696;2023-08-17T01:25:51;16.40;99.90
16846;DHT22;8539;53.188;8.696;2023-08-17T01:28:24;16.40;99.90
16846;DHT22;8539;53.188;8.696;2023-08-17T01:31:12;16.40;99.90
16846;DHT22;8539;53.188;8.696;2023-08-17T01:36:26;16.40;99.90
16846;DHT22;8539;53.188;8.696;2023-08-17T01:39:02;16.40;99.90
16846;DHT22;8539;53.188;8.696;2023-08-17T01:41:32;16.40;99.90
16846;DHT22;8539;53.188;8.696;2023-08-17T01:44:20;16.40;99.90
16846;DHT22;8539;53.188;8.696;2023-08-17T01:46:50;16.40;99.90
16846;DHT22;8539;53.188;8.696;2023-08-17T01:49:25;16.40;99.90
16846;DHT22;8539;53.188;8.696;2023-08-17T01:52:20;16.40;99.90
16846;DHT22;8539;53.188;8.696;2023-08-17T01:54:48;16.40;99.90
16846;DHT22;8539;53.188;8.696;2023-08-17T01:57:15;16.40;99.90
16846;DHT22;8539;53.188;8.696;2023-08-17T01:59:42;16.40;99.90
16846;DHT22;8539;53.188;8.696;2023-08-17T02:02:08;16.40;99.90
16846;DHT22;8539;53.188;8.696;2023-08-17T02:04:34;16.40;99.90
16846;DHT22;8539;53.188;8.696;2023-08-17T02:07:00;16.40;99.90
16846;DHT22;8539;53.188;8.696;2023-08-17T02:09:28;16.40;99.90
16846;DHT22;8539;53.188;8.696;2023-08-17T02:11:54;16.40;99.90
16846;DHT22;8539;53.188;8.696;2023-08-17T02:14:20;16.40;99.90
16846;DHT22;8539;53.188;8.696;2023-08-17T02:16:46;16.40;99.90
16846;DHT22;8539;53.188;8.696;2023-08-17T02:19:13;16.40;99.90
16846;DHT22;8539;53.188;8.696;2023-08-17T02:21:44;16.40;99.90
16846;DHT22;8539;53.188;8.696;2023-08-17T02:24:14;16.40;99.90
16846;DHT22;8539;53.188;8.696;2023-08-17T02:26:40;16.40;99.90
16846;DHT22;8539;53.188;8.696;2023-08-17T02:29:06;16.40;99.90
16846;DHT22;8539;53.188;8.696;2023-08-17T02:31:32;16.40;99.90
16846;DHT22;8539;53.188;8.696;2023-08-17T02:36:34;16.40;99.90
16846;DHT22;8539;53.188;8.696;2023-08-17T02:39:00;16.40;99.90
16846;DHT22;8539;53.188;8.696;2023-08-17T02:41:26;16.40;99.90
16846;DHT22;8539;53.188;8.696;2023-08-17T02:43:52;16.40;99.90
16846;DHT22;8539;53.188;8.696;2023-08-17T02:46:18;16.40;99.90
16846;DHT22;8539;53.188;8.696;2023-08-17T02:48:44;16.40;99.90
16846;DHT22;8539;53.188;8.696;2023-08-17T02:51:10;16.40;99.90
16846;DHT22;8539;53.188;8.696;2023-08-17T02:56:07;16.40;99.90
16846;DHT22;8539;53.188;8.696;2023-08-17T02:58:38;16.40;99.90
16846;DHT22;8539;53.188;8.696;2023-08-17T03:01:08;16.40;99.90
16846;DHT22;8539;53.188;8.696;2023-08-17T03:03:34;16.40;99.90
16846;DHT22;8539;53.188;8.696;2023-08-17T03:06:08;16.40;99.90
16846;DHT22;8539;53.188;8.696;2023-08-17T03:11:12;16.40;99.90
16846;DHT22;8539;53.188;8.696;2023-08-17T03:13:39;16.40;99.90
16846;DHT22;8539;53.188;8.696;2023-08-17T03:19:04;16.40;99.90
16846;DHT22;8539;53.188;8.696;2023-08-17T03:24:08;16.30;99.90
16846;DHT22;8539;53.188;8.696;2023-08-17T03:26:34;16.30;99.90
16846;DHT22;8539;53.188;8.696;2023-08-17T03:29:01;16.30;99.90
16846;DHT22;8539;53.188;8.696;2023-08-17T03:31:27;16.30;99.90
16846;DHT22;8539;53.188;8.696;2023-08-17T03:33:54;16.30;99.90
16846;DHT22;8539;53.188;8.696;2023-08-17T03:36:24;16.30;99.90
16846;DHT22;8539;53.188;8.696;2023-08-17T03:38:51;16.30;99.90
16846;DHT22;8539;53.188;8.696;2023-08-17T03:41:18;16.30;99.90
16846;DHT22;8539;53.188;8.696;2023-08-17T03:43:45;16.30;99.90
16846;DHT22;8539;53.188;8.696;2023-08-17T03:46:14;16.30;99.90
16846;DHT22;8539;53.188;8.696;2023-08-17T03:48:40;16.30;99.90
16846;DHT22;8539;53.188;8.696;2023-08-17T03:51:07;16.30;99.90
16846;DHT22;8539;53.188;8.696;2023-08-17T03:53:33;16.30;99.90
16846;DHT22;8539;53.188;8.696;2023-08-17T03:56:00;16.20;99.90
16846;DHT22;8539;53.188;8.696;2023-08-17T03:58:26;16.30;99.90
16846;DHT22;8539;53.188;8.696;2023-08-17T04:00:58;16.30;99.90
16846;DHT22;8539;53.188;8.696;2023-08-17T04:03:26;16.30;99.90
16846;DHT22;8539;53.188;8.696;2023-08-17T04:05:55;16.30;99.90
16846;DHT22;8539;53.188;8.696;2023-08-17T04:08:22;16.30;99.90
16846;DHT22;8539;53.188;8.696;2023-08-17T04:10:48;16.30;99.90
16846;DHT22;8539;53.188;8.696;2023-08-17T04:13:15;16.20;99.90
16846;DHT22;8539;53.188;8.696;2023-08-17T04:15:42;16.30;99.90
16846;DHT22;8539;53.188;8.696;2023-08-17T04:18:09;16.30;99.90
16846;DHT22;8539;53.188;8.696;2023-08-17T04:20:35;16.30;99.90
16846;DHT22;8539;53.188;8.696;2023-08-17T04:23:03;16.30;99.90
16846;DHT22;8539;53.188;8.696;2023-08-17T04:25:29;16.20;99.90
16846;DHT22;8539;53.188;8.696;2023-08-17T04:27:55;16.20;99.90
16846;DHT22;8539;53.188;8.696;2023-08-17T04:30:22;16.20;99.90
16846;DHT22;8539;53.188;8.696;2023-08-17T04:32:48;16.20;99.90
16846;DHT22;8539;53.188;8.696;2023-08-17T04:38:10;16.20;99.90
16846;DHT22;8539;53.188;8.696;2023-08-17T04:40:39;16.20;99.90
16846;DHT22;8539;53.188;8.696;2023-08-17T04:43:06;16.30;99.90
16846;DHT22;8539;53.188;8.696;2023-08-17T04:45:33;16.20;99.90
16846;DHT22;8539;53.188;8.696;2023-08-17T04:47:59;16.20;99.90
16846;DHT22;8539;53.188;8.696;2023-08-17T04:50:27;16.20;99.90
16846;DHT22;8539;53.188;8.696;2023-08-17T04:52:54;16.20;99.90
16846;DHT22;8539;53.188;8.696;2023-08-17T04:55:20;16.20;99.90
16846;DHT22;8539;53.188;8.696;2023-08-17T04:57:46;16.20;99.90
16846;DHT22;8539;53.188;8.696;2023-08-17T05:00:14;16.20;99.90
16846;DHT22;8539;53.188;8.696;2023-08-17T05:02:40;16.10;99.90
16846;DHT22;8539;53.188;8.696;2023-08-17T05:05:10;16.10;99.90
16846;DHT22;8539;53.188;8.696;2023-08-17T05:07:36;16.10;99.90
16846;DHT22;8539;53.188;8.696;2023-08-17T05:10:02;16.10;99.90
16846;DHT22;8539;53.188;8.696;2023-08-17T05:12:29;16.10;99.90
16846;DHT22;8539;53.188;8.696;2023-08-17T05:14:55;16.00;99.90
16846;DHT22;8539;53.188;8.696;2023-08-17T05:17:21;16.10;99.90
16846;DHT22;8539;53.188;8.696;2023-08-17T05:19:47;16.00;99.90
16846;DHT22;8539;53.188;8.696;2023-08-17T05:22:14;16.00;99.90
16846;DHT22;8539;53.188;8.696;2023-08-17T05:24:41;16.00;99.90
16846;DHT22;8539;53.188;8.696;2023-08-17T05:27:08;16.00;99.90
16846;DHT22;8539;53.188;8.696;2023-08-17T05:29:34;16.00;99.90
16846;DHT22;8539;53.188;8.696;2023-08-17T05:32:00;16.00;99.90
16846;DHT22;8539;53.188;8.696;2023-08-17T05:34:26;16.00;99.90
16846;DHT22;8539;53.188;8.696;2023-08-17T05:36:52;16.00;99.90
16846;DHT22;8539;53.188;8.696;2023-08-17T05:39:19;16.00;99.90
16846;DHT22;8539;53.188;8.696;2023-08-17T05:41:48;16.00;99.90
16846;DHT22;8539;53.188;8.696;2023-08-17T05:46:44;16.10;99.90
16846;DHT22;8539;53.188;8.696;2023-08-17T05:49:10;16.10;99.90
16846;DHT22;8539;53.188;8.696;2023-08-17T05:51:36;16.20;99.90
16846;DHT22;8539;53.188;8.696;2023-08-17T05:54:02;16.20;99.90
16846;DHT22;8539;53.188;8.696;2023-08-17T05:56:38;16.20;99.90
16846;DHT22;8539;53.188;8.696;2023-08-17T05:59:17;16.20;99.90
16846;DHT22;8539;53.188;8.696;2023-08-17T06:04:18;16.30;99.90
16846;DHT22;8539;53.188;8.696;2023-08-17T06:06:46;16.40;99.90
16846;DHT22;8539;53.188;8.696;2023-08-17T06:09:12;16.40;99.90
16846;DHT22;8539;53.188;8.696;2023-08-17T06:11:38;16.40;99.90
16846;DHT22;8539;53.188;8.696;2023-08-17T06:14:06;16.50;99.90
16846;DHT22;8539;53.188;8.696;2023-08-17T06:16:32;16.50;99.90
16846;DHT22;8539;53.188;8.696;2023-08-17T06:18:58;16.60;99.90
16846;DHT22;8539;53.188;8.696;2023-08-17T06:21:24;16.60;99.90
16846;DHT22;8539;53.188;8.696;2023-08-17T06:23:51;16.70;99.90
16846;DHT22;8539;53.188;8.696;2023-08-17T06:26:17;16.70;99.90
16846;DHT22;8539;53.188;8.696;2023-08-17T06:28:44;16.70;99.90
16846;DHT22;8539;53.188;8.696;2023-08-17T06:31:14;16.80;99.90
16846;DHT22;8539;53.188;8.696;2023-08-17T06:33:40;16.70;99.90
16846;DHT22;8539;53.188;8.696;2023-08-17T06:36:06;16.70;99.90
16846;DHT22;8539;53.188;8.696;2023-08-17T06:38:32;16.70;99.90
16846;DHT22;8539;53.188;8.696;2023-08-17T06:40:58;16.70;99.90
16846;DHT22;8539;53.188;8.696;2023-08-17T06:43:24;16.70;99.90
16846;DHT22;8539;53.188;8.696;2023-08-17T06:45:51;16.80;99.90
16846;DHT22;8539;53.188;8.696;2023-08-17T06:48:17;16.80;99.90
16846;DHT22;8539;53.188;8.696;2023-08-17T06:50:43;16.80;99.90
16846;DHT22;8539;53.188;8.696;2023-08-17T06:53:09;16.90;99.90
16846;DHT22;8539;53.188;8.696;2023-08-17T06:55:36;16.90;99.90
16846;DHT22;8539;53.188;8.696;2023-08-17T06:58:03;16.90;99.90
16846;DHT22;8539;53.188;8.696;2023-08-17T07:00:29;17.00;99.90
16846;DHT22;8539;53.188;8.696;2023-08-17T07:02:55;17.00;99.90
16846;DHT22;8539;53.188;8.696;2023-08-17T07:05:21;17.00;99.90
16846;DHT22;8539;53.188;8.696;2023-08-17T07:07:48;17.10;99.90
16846;DHT22;8539;53.188;8.696;2023-08-17T07:10:14;17.10;99.90
16846;DHT22;8539;53.188;8.696;2023-08-17T07:12:40;17.20;99.90
16846;DHT22;8539;53.188;8.696;2023-08-17T07:15:07;17.20;99.90
16846;DHT22;8539;53.188;8.696;2023-08-17T07:17:33;17.30;99.90
16846;DHT22;8539;53.188;8.696;2023-08-17T07:20:04;17.30;99.90
16846;DHT22;8539;53.188;8.696;2023-08-17T07:22:30;17.30;99.90
16846;DHT22;8539;53.188;8.696;2023-08-17T07:24:56;17.30;99.90
16846;DHT22;8539;53.188;8.696;2023-08-17T07:27:23;17.30;99.90
16846;DHT22;8539;53.188;8.696;2023-08-17T07:29:49;17.30;99.90
16846;DHT22;8539;53.188;8.696;2023-08-17T07:32:16;17.40;99.90
16846;DHT22;8539;53.188;8.696;2023-08-17T07:34:42;17.50;99.90
16846;DHT22;8539;53.188;8.696;2023-08-17T07:37:08;17.60;99.90
16846;DHT22;8539;53.188;8.696;2023-08-17T07:39:34;17.60;99.90
16846;DHT22;8539;53.188;8.696;2023-08-17T07:42:00;17.70;99.90
16846;DHT22;8539;53.188;8.696;2023-08-17T07:44:26;17.70;99.90
16846;DHT22;8539;53.188;8.696;2023-08-17T07:46:54;17.80;99.90
16846;DHT22;8539;53.188;8.696;2023-08-17T07:49:20;17.80;99.90
16846;DHT22;8539;53.188;8.696;2023-08-17T07:51:49;17.80;99.90
16846;DHT22;8539;53.188;8.696;2023-08-17T07:54:15;17.90;99.90
16846;DHT22;8539;53.188;8.696;2023-08-17T07:56:41;18.00;99.90
16846;DHT22;8539;53.188;8.696;2023-08-17T07:59:07;18.10;99.90
16846;DHT22;8539;53.188;8.696;2023-08-17T08:01:33;18.20;99.90
16846;DHT22;8539;53.188;8.696;2023-08-17T08:03:59;18.30;99.90
16846;DHT22;8539;53.188;8.696;2023-08-17T08:06:25;18.40;99.90
16846;DHT22;8539;53.188;8.696;2023-08-17T08:08:51;18.40;99.90
16846;DHT22;8539;53.188;8.696;2023-08-17T08:11:17;18.40;99.90
16846;DHT22;8539;53.188;8.696;2023-08-17T08:13:44;18.40;99.90
16846;DHT22;8539;53.188;8.696;2023-08-17T08:16:10;18.40;99.90
16846;DHT22;8539;53.188;8.696;2023-08-17T08:18:36;18.30;99.90
16846;DHT22;8539;53.188;8.696;2023-08-17T08:21:02;18.30;99.90
16846;DHT22;8539;53.188;8.696;2023-08-17T08:23:28;18.30;99.90
16846;DHT22;8539;53.188;8.696;2023-08-17T08:25:55;18.30;99.90
16846;DHT22;8539;53.188;8.696;2023-08-17T08:28:22;18.30;99.90
16846;DHT22;8539;53.188;8.696;2023-08-17T08:30:48;18.30;99.90
16846;DHT22;8539;53.188;8.696;2023-08-17T08:33:14;18.20;99.90
16846;DHT22;8539;53.188;8.696;2023-08-17T08:35:40;18.20;99.90
16846;DHT22;8539;53.188;8.696;2023-08-17T08:38:07;18.20;99.90
16846;DHT22;8539;53.188;8.696;2023-08-17T08:40:34;18.20;99.90
16846;DHT22;8539;53.188;8.696;2023-08-17T08:43:03;18.20;99.90
16846;DHT22;8539;53.188;8.696;2023-08-17T08:45:30;18.20;99.90
16846;DHT22;8539;53.188;8.696;2023-08-17T08:47:58;18.10;99.90
16846;DHT22;8539;53.188;8.696;2023-08-17T08:50:26;18.20;99.90
16846;DHT22;8539;53.188;8.696;2023-08-17T08:53:02;18.00;99.90
16846;DHT22;8539;53.188;8.696;2023-08-17T08:55:34;18.00;99.90
16846;DHT22;8539;53.188;8.696;2023-08-17T08:58:04;18.00;99.90
16846;DHT22;8539;53.188;8.696;2023-08-17T09:00:30;18.00;99.90
16846;DHT22;8539;53.188;8.696;2023-08-17T09:02:56;18.00;99.90
16846;DHT22;8539;53.188;8.696;2023-08-17T09:05:24;18.00;99.90
16846;DHT22;8539;53.188;8.696;2023-08-17T09:07:52;18.00;99.90
16846;DHT22;8539;53.188;8.696;2023-08-17T09:10:18;18.00;99.90
16846;DHT22;8539;53.188;8.696;2023-08-17T09:12:46;18.00;99.90
16846;DHT22;8539;53.188;8.696;2023-08-17T09:15:13;18.00;99.90
16846;DHT22;8539;53.188;8.696;2023-08-17T09:17:39;18.00;99.90
16846;DHT22;8539;53.188;8.696;2023-08-17T09:20:05;18.00;99.90
16846;DHT22;8539;53.188;8.696;2023-08-17T09:22:39;18.00;99.90
16846;DHT22;8539;53.188;8.696;2023-08-17T09:25:07;18.00;99.90
16846;DHT22;8539;53.188;8.696;2023-08-17T09:27:33;18.00;99.90
16846;DHT22;8539;53.188;8.696;2023-08-17T09:30:08;18.00;99.90
16846;DHT22;8539;53.188;8.696;2023-08-17T09:32:34;18.00;99.90
16846;DHT22;8539;53.188;8.696;2023-08-17T09:35:04;17.90;99.90
16846;DHT22;8539;53.188;8.696;2023-08-17T09:37:32;17.90;99.90
16846;DHT22;8539;53.188;8.696;2023-08-17T09:39:58;17.90;99.90
16846;DHT22;8539;53.188;8.696;2023-08-17T09:42:25;17.90;99.90
16846;DHT22;8539;53.188;8.696;2023-08-17T09:44:53;17.80;99.90
16846;DHT22;8539;53.188;8.696;2023-08-17T09:47:20;17.80;99.90
16846;DHT22;8539;53.188;8.696;2023-08-17T09:49:49;17.80;99.90
16846;DHT22;8539;53.188;8.696;2023-08-17T09:52:16;17.80;99.90
16846;DHT22;8539;53.188;8.696;2023-08-17T09:54:42;17.90;99.90
16846;DHT22;8539;53.188;8.696;2023-08-17T09:59:44;17.80;99.90
16846;DHT22;8539;53.188;8.696;2023-08-17T10:02:17;17.80;99.90
16846;DHT22;8539;53.188;8.696;2023-08-17T10:04:51;17.80;99.90
16846;DHT22;8539;53.188;8.696;2023-08-17T10:07:21;17.80;99.90
16846;DHT22;8539;53.188;8.696;2023-08-17T10:10:03;17.90;99.90
16846;DHT22;8539;53.188;8.696;2023-08-17T10:12:35;18.00;99.90
16846;DHT22;8539;53.188;8.696;2023-08-17T10:15:05;18.10;99.90
16846;DHT22;8539;53.188;8.696;2023-08-17T10:17:59;18.30;99.90
16846;DHT22;8539;53.188;8.696;2023-08-17T10:20:30;18.40;99.90
16846;DHT22;8539;53.188;8.696;2023-08-17T10:23:01;18.40;99.90
16846;DHT22;8539;53.188;8.696;2023-08-17T10:25:31;18.50;99.90
16846;DHT22;8539;53.188;8.696;2023-08-17T10:27:58;18.50;99.90
16846;DHT22;8539;53.188;8.696;2023-08-17T10:30:26;18.50;99.90
16846;DHT22;8539;53.188;8.696;2023-08-17T10:32:53;18.50;99.90
16846;DHT22;8539;53.188;8.696;2023-08-17T10:35:19;18.60;99.90
16846;DHT22;8539;53.188;8.696;2023-08-17T10:37:48;18.60;99.90
16846;DHT22;8539;53.188;8.696;2023-08-17T10:40:14;18.60;99.90
16846;DHT22;8539;53.188;8.696;2023-08-17T10:42:40;18.70;99.90
16846;DHT22;8539;53.188;8.696;2023-08-17T10:45:36;18.70;99.90
16846;DHT22;8539;53.188;8.696;2023-08-17T10:50:37;18.70;99.90
16846;DHT22;8539;53.188;8.696;2023-08-17T10:53:13;18.70;99.90
16846;DHT22;8539;53.188;8.696;2023-08-17T10:55:46;18.70;99.90
16846;DHT22;8539;53.188;8.696;2023-08-17T10:58:18;18.70;99.90
16846;DHT22;8539;53.188;8.696;2023-08-17T11:00:44;18.60;99.90
16846;DHT22;8539;53.188;8.696;2023-08-17T11:03:18;18.60;99.90
16846;DHT22;8539;53.188;8.696;2023-08-17T11:05:53;18.50;99.90
16846;DHT22;8539;53.188;8.696;2023-08-17T11:08:32;18.50;99.90
16846;DHT22;8539;53.188;8.696;2023-08-17T11:13:28;18.50;99.90
16846;DHT22;8539;53.188;8.696;2023-08-17T11:15:58;18.50;99.90
16846;DHT22;8539;53.188;8.696;2023-08-17T11:18:25;18.50;99.90
16846;DHT22;8539;53.188;8.696;2023-08-17T11:20:52;18.60;99.90
16846;DHT22;8539;53.188;8.696;2023-08-17T11:23:18;18.60;99.90
16846;DHT22;8539;53.188;8.696;2023-08-17T11:25:45;18.60;99.90
16846;DHT22;8539;53.188;8.696;2023-08-17T11:28:13;18.60;99.90
16846;DHT22;8539;53.188;8.696;2023-08-17T11:30:40;18.70;99.90
16846;DHT22;8539;53.188;8.696;2023-08-17T11:33:08;18.60;99.90
16846;DHT22;8539;53.188;8.696;2023-08-17T11:35:34;18.70;99.90
16846;DHT22;8539;53.188;8.696;2023-08-17T11:38:01;18.70;99.90
16846;DHT22;8539;53.188;8.696;2023-08-17T11:40:27;18.60;99.90
16846;DHT22;8539;53.188;8.696;2023-08-17T11:42:53;18.60;99.90
16846;DHT22;8539;53.188;8.696;2023-08-17T11:45:20;18.60;99.90
16846;DHT22;8539;53.188;8.696;2023-08-17T11:47:47;18.70;99.90
16846;DHT22;8539;53.188;8.696;2023-08-17T11:50:13;18.70;99.90
16846;DHT22;8539;53.188;8.696;2023-08-17T11:52:40;18.90;99.90
16846;DHT22;8539;53.188;8.696;2023-08-17T11:55:08;18.90;99.90
16846;DHT22;8539;53.188;8.696;2023-08-17T11:57:36;19.10;99.90
16846;DHT22;8539;53.188;8.696;2023-08-17T12:00:04;19.10;99.90
16846;DHT22;8539;53.188;8.696;2023-08-17T12:02:35;19.10;99.90
16846;DHT22;8539;53.188;8.696;2023-08-17T12:05:08;19.20;99.90
16846;DHT22;8539;53.188;8.696;2023-08-17T12:07:35;19.30;99.90
16846;DHT22;8539;53.188;8.696;2023-08-17T12:10:05;19.40;99.90
16846;DHT22;8539;53.188;8.696;2023-08-17T12:12:36;19.50;99.90
16846;DHT22;8539;53.188;8.696;2023-08-17T12:15:04;19.60;99.90
16846;DHT22;8539;53.188;8.696;2023-08-17T12:17:31;19.60;99.90
16846;DHT22;8539;53.188;8.696;2023-08-17T12:19:58;19.60;99.90
16846;DHT22;8539;53.188;8.696;2023-08-17T12:22:25;19.70;99.90
16846;DHT22;8539;53.188;8.696;2023-08-17T12:24:52;19.80;99.90
16846;DHT22;8539;53.188;8.696;2023-08-17T12:27:18;19.80;99.90
16846;DHT22;8539;53.188;8.696;2023-08-17T12:29:51;19.70;99.90
16846;DHT22;8539;53.188;8.696;2023-08-17T12:32:19;19.60;99.90
16846;DHT22;8539;53.188;8.696;2023-08-17T12:34:46;19.60;99.90
16846;DHT22;8539;53.188;8.696;2023-08-17T12:37:17;19.50;99.90
16846;DHT22;8539;53.188;8.696;2023-08-17T12:39:43;19.50;99.90
16846;DHT22;8539;53.188;8.696;2023-08-17T12:42:10;19.40;99.90
16846;DHT22;8539;53.188;8.696;2023-08-17T12:44:36;19.30;99.90
16846;DHT22;8539;53.188;8.696;2023-08-17T12:47:02;19.30;99.90
16846;DHT22;8539;53.188;8.696;2023-08-17T12:49:28;19.20;99.90
16846;DHT22;8539;53.188;8.696;2023-08-17T12:51:54;19.10;99.90
16846;DHT22;8539;53.188;8.696;2023-08-17T12:54:20;19.00;99.90
16846;DHT22;8539;53.188;8.696;2023-08-17T12:56:46;18.90;99.90
16846;DHT22;8539;53.188;8.696;2023-08-17T12:59:12;18.90;99.90
16846;DHT22;8539;53.188;8.696;2023-08-17T13:01:38;18.80;99.90
16846;DHT22;8539;53.188;8.696;2023-08-17T13:04:05;18.70;99.90
16846;DHT22;8539;53.188;8.696;2023-08-17T13:06:32;18.60;99.90
16846;DHT22;8539;53.188;8.696;2023-08-17T13:08:58;18.50;99.90
16846;DHT22;8539;53.188;8.696;2023-08-17T13:11:24;18.40;99.90
16846;DHT22;8539;53.188;8.696;2023-08-17T13:13:50;18.40;99.90
16846;DHT22;8539;53.188;8.696;2023-08-17T13:16:16;18.30;99.90
16846;DHT22;8539;53.188;8.696;2023-08-17T13:18:42;18.20;99.90
16846;DHT22;8539;53.188;8.696;2023-08-17T13:21:08;18.20;99.90
16846;DHT22;8539;53.188;8.696;2023-08-17T13:23:34;18.10;99.90
16846;DHT22;8539;53.188;8.696;2023-08-17T13:26:01;18.10;99.90
16846;DHT22;8539;53.188;8.696;2023-08-17T13:28:27;18.00;99.90
16846;DHT22;8539;53.188;8.696;2023-08-17T13:30:53;18.00;99.90
16846;DHT22;8539;53.188;8.696;2023-08-17T13:33:19;17.90;99.90
16846;DHT22;8539;53.188;8.696;2023-08-17T13:35:45;17.70;99.90
16846;DHT22;8539;53.188;8.696;2023-08-17T13:38:11;17.50;99.90
16846;DHT22;8539;53.188;8.696;2023-08-17T13:40:38;17.30;99.90
16846;DHT22;8539;53.188;8.696;2023-08-17T13:43:05;17.20;99.90
16846;DHT22;8539;53.188;8.696;2023-08-17T13:45:40;17.10;99.90
16846;DHT22;8539;53.188;8.696;2023-08-17T13:48:07;17.10;99.90
16846;DHT22;8539;53.188;8.696;2023-08-17T13:50:37;17.10;99.90
16846;DHT22;8539;53.188;8.696;2023-08-17T13:53:04;17.10;99.90
16846;DHT22;8539;53.188;8.696;2023-08-17T13:55:30;17.20;99.90
16846;DHT22;8539;53.188;8.696;2023-08-17T13:57:56;17.30;99.90
16846;DHT22;8539;53.188;8.696;2023-08-17T14:00:23;17.50;99.90
16846;DHT22;8539;53.188;8.696;2023-08-17T14:02:49;17.80;99.90
16846;DHT22;8539;53.188;8.696;2023-08-17T14:05:15;18.00;99.90
16846;DHT22;8539;53.188;8.696;2023-08-17T14:07:41;18.20;99.90
16846;DHT22;8539;53.188;8.696;2023-08-17T14:10:07;18.20;99.90
16846;DHT22;8539;53.188;8.696;2023-08-17T14:12:34;18.20;99.90
16846;DHT22;8539;53.188;8.696;2023-08-17T14:15:00;18.20;99.90
16846;DHT22;8539;53.188;8.696;2023-08-17T14:17:26;18.20;99.90
16846;DHT22;8539;53.188;8.696;2023-08-17T14:19:52;18.20;99.90
16846;DHT22;8539;53.188;8.696;2023-08-17T14:22:19;18.20;99.90
16846;DHT22;8539;53.188;8.696;2023-08-17T14:24:45;18.10;99.90
16846;DHT22;8539;53.188;8.696;2023-08-17T14:27:11;18.10;99.90
16846;DHT22;8539;53.188;8.696;2023-08-17T14:29:37;18.00;99.90
16846;DHT22;8539;53.188;8.696;2023-08-17T14:32:03;17.90;99.90
16846;DHT22;8539;53.188;8.696;2023-08-17T14:34:29;17.80;99.90
16846;DHT22;8539;53.188;8.696;2023-08-17T14:36:55;17.70;99.90
16846;DHT22;8539;53.188;8.696;2023-08-17T14:39:21;17.60;99.90
16846;DHT22;8539;53.188;8.696;2023-08-17T14:41:47;17.60;99.90
16846;DHT22;8539;53.188;8.696;2023-08-17T14:44:13;17.50;99.90
16846;DHT22;8539;53.188;8.696;2023-08-17T14:46:39;17.50;99.90
16846;DHT22;8539;53.188;8.696;2023-08-17T14:49:07;17.40;99.90
16846;DHT22;8539;53.188;8.696;2023-08-17T14:51:38;17.40;99.90
16846;DHT22;8539;53.188;8.696;2023-08-17T14:54:06;17.40;99.90
16846;DHT22;8539;53.188;8.696;2023-08-17T14:56:32;17.40;99.90
16846;DHT22;8539;53.188;8.696;2023-08-17T14:58:58;17.40;99.90
16846;DHT22;8539;53.188;8.696;2023-08-17T15:01:24;17.40;99.90
16846;DHT22;8539;53.188;8.696;2023-08-17T15:03:50;17.40;99.90
16846;DHT22;8539;53.188;8.696;2023-08-17T15:06:16;17.40;99.90
16846;DHT22;8539;53.188;8.696;2023-08-17T15:08:42;17.40;99.90
16846;DHT22;8539;53.188;8.696;2023-08-17T15:11:08;17.40;99.90
16846;DHT22;8539;53.188;8.696;2023-08-17T15:13:35;17.40;99.90
16846;DHT22;8539;53.188;8.696;2023-08-17T15:16:01;17.40;99.90
16846;DHT22;8539;53.188;8.696;2023-08-17T15:18:27;17.30;99.90
16846;DHT22;8539;53.188;8.696;2023-08-17T15:20:53;17.30;99.90
16846;DHT22;8539;53.188;8.696;2023-08-17T15:23:19;17.30;99.90
16846;DHT22;8539;53.188;8.696;2023-08-17T15:25:45;17.30;99.90
16846;DHT22;8539;53.188;8.696;2023-08-17T15:28:11;17.20;99.90
16846;DHT22;8539;53.188;8.696;2023-08-17T15:30:38;17.20;99.90
16846;DHT22;8539;53.188;8.696;2023-08-17T15:33:05;17.30;99.90
16846;DHT22;8539;53.188;8.696;2023-08-17T15:35:31;17.30;99.90
16846;DHT22;8539;53.188;8.696;2023-08-17T15:37:57;17.30;99.90
16846;DHT22;8539;53.188;8.696;2023-08-17T15:40:24;17.30;99.90
16846;DHT22;8539;53.188;8.696;2023-08-17T15:42:51;17.30;99.90
16846;DHT22;8539;53.188;8.696;2023-08-17T15:45:17;17.30;99.90
16846;DHT22;8539;53.188;8.696;2023-08-17T15:47:47;17.30;99.90
16846;DHT22;8539;53.188;8.696;2023-08-17T15:50:13;17.30;99.90
16846;DHT22;8539;53.188;8.696;2023-08-17T15:52:39;17.30;99.90
16846;DHT22;8539;53.188;8.696;2023-08-17T15:55:06;17.30;99.90
16846;DHT22;8539;53.188;8.696;2023-08-17T15:57:32;17.30;99.90
16846;DHT22;8539;53.188;8.696;2023-08-17T15:59:58;17.30;99.90
16846;DHT22;8539;53.188;8.696;2023-08-17T16:02:24;17.30;99.90
16846;DHT22;8539;53.188;8.696;2023-08-17T16:08:35;17.30;99.90
16846;DHT22;8539;53.188;8.696;2023-08-17T16:11:01;17.30;99.90
16846;DHT22;8539;53.188;8.696;2023-08-17T16:13:27;17.30;99.90
16846;DHT22;8539;53.188;8.696;2023-08-17T16:15:56;17.30;99.90
16846;DHT22;8539;53.188;8.696;2023-08-17T16:18:22;17.30;99.90
16846;DHT22;8539;53.188;8.696;2023-08-17T16:20:48;17.30;99.90
16846;DHT22;8539;53.188;8.696;2023-08-17T16:23:14;17.30;99.90
16846;DHT22;8539;53.188;8.696;2023-08-17T16:25:43;17.30;99.90
16846;DHT22;8539;53.188;8.696;2023-08-17T16:28:09;17.30;99.90
16846;DHT22;8539;53.188;8.696;2023-08-17T16:30:35;17.30;99.90
16846;DHT22;8539;53.188;8.696;2023-08-17T16:33:03;17.30;99.90
16846;DHT22;8539;53.188;8.696;2023-08-17T16:35:30;17.30;99.90
16846;DHT22;8539;53.188;8.696;2023-08-17T16:37:56;17.30;99.90